Whidbey Island Naval Air Station /Ault Field/ Airport
KNUW : now visible

Airfield :











YOU CAN JOIN US ON...

 
LOGIN :

Register | Disclaimer

   EN    FR    IT 

 









Legend :    VFR   Marginal VFR   IFR   Intensive IFR   Very Intensive IFR
Visi :
Ceiling :
>= 8 km
>= 3000ft
5 to 8 km
1000 to 3000 ft
1500m to 5 km
500 to 1000 ft
800 to 1500m
200 to 500 ft
< 800m
< 200 ft
Symbols :   Thunderstorms  Fog  Heavy snow  Heavy precipitations  Wind > 20 kt






- Airport Elevation : 47 ft


KNUW - Whidbey Island Naval Air Station /Ault Field/

CURRENT METAR :
  • 102156Z 11007KT 9SM -RA FEW008 OVC015 08/04 A3015 RMK AO2 RAE2058B45 SLP208 P0000 T00780044 $

EXPIRED METARs :
  • 102056Z 11006KT 7SM -RA FEW008 BKN015 OVC021 08/04 A3016 RMK AO2 SLP211 P0002 60003 T00780044 55007 $
  • 101956Z 10010KT 7SM -RA FEW006 BKN010 OVC014 07/04 A3016 RMK AO2 SLP210 P0001 T00720039 $

TAF TAF KNUW
Valid from the 10 at 15:00 until the 11 at 15:00 UTC


1015/1115 12007KT 9999 VCSH BKN005 OVC020 QNH3014INS
TEMPO 1015/1020 VRB06KT 6000 -RA BR SCT005 OVC012
FM102000 13010KT 9999 VCSH SCT006 BKN015 BKN120 BKN250 641008 QNH3009INS
TEMPO 1020/1102 8000 -SHRA BR SCT012 BKN020 OVC050 T10/1021Z T05/1113Z FS30004



MET'MAP, your aeronautical weather chart ! - Copyright ORBIFLY December 2007 - Disclaimer

ORBIFLY MET'MAP TEAM :

Programming & Development : Alexandra Zaïnal
Concept & original design : Baudouin d'Aumeries
Assistance for programming : Marc-Olivier Méhu
Technical & hardware support : Manuel Goepfert

Contact : metmap@orbifly.com




SOURCES & CREDITS :

   NOAA       Earth
Advisory